sensor_id;sensor_type;location;lat;lon;timestamp;P1;durP1;ratioP1;P2;durP2;ratioP2
16928;SDS011;8581;47.334;11.190;2023-02-15T00:00:42;3.27;;;2.00;;
16928;SDS011;8581;47.334;11.190;2023-02-15T00:03:15;3.67;;;1.80;;
16928;SDS011;8581;47.334;11.190;2023-02-15T00:05:45;2.23;;;2.00;;
16928;SDS011;8581;47.334;11.190;2023-02-15T00:08:17;2.30;;;1.90;;
16928;SDS011;8581;47.334;11.190;2023-02-15T00:10:48;1.87;;;1.67;;
16928;SDS011;8581;47.334;11.190;2023-02-15T00:13:20;3.07;;;1.80;;
16928;SDS011;8581;47.334;11.190;2023-02-15T00:15:52;1.83;;;1.70;;
16928;SDS011;8581;47.334;11.190;2023-02-15T00:18:23;2.70;;;1.77;;
16928;SDS011;8581;47.334;11.190;2023-02-15T00:20:55;2.60;;;2.07;;
16928;SDS011;8581;47.334;11.190;2023-02-15T00:23:26;2.10;;;1.60;;
16928;SDS011;8581;47.334;11.190;2023-02-15T00:26:05;1.57;;;1.43;;
16928;SDS011;8581;47.334;11.190;2023-02-15T00:28:35;2.57;;;1.67;;
16928;SDS011;8581;47.334;11.190;2023-02-15T00:31:08;2.53;;;1.60;;
16928;SDS011;8581;47.334;11.190;2023-02-15T00:33:39;1.50;;;1.30;;
16928;SDS011;8581;47.334;11.190;2023-02-15T00:36:11;2.70;;;1.47;;
16928;SDS011;8581;47.334;11.190;2023-02-15T00:38:42;1.70;;;1.60;;
16928;SDS011;8581;47.334;11.190;2023-02-15T00:41:14;2.17;;;1.50;;
16928;SDS011;8581;47.334;11.190;2023-02-15T00:43:46;1.50;;;1.30;;
16928;SDS011;8581;47.334;11.190;2023-02-15T00:46:17;2.60;;;1.30;;
16928;SDS011;8581;47.334;11.190;2023-02-15T00:48:49;2.07;;;1.20;;
16928;SDS011;8581;47.334;11.190;2023-02-15T00:51:20;1.50;;;1.20;;
16928;SDS011;8581;47.334;11.190;2023-02-15T00:53:52;1.43;;;1.20;;
16928;SDS011;8581;47.334;11.190;2023-02-15T00:56:24;1.50;;;1.00;;
16928;SDS011;8581;47.334;11.190;2023-02-15T00:58:55;1.20;;;1.10;;
16928;SDS011;8581;47.334;11.190;2023-02-15T01:01:27;1.10;;;1.00;;
16928;SDS011;8581;47.334;11.190;2023-02-15T01:03:58;3.50;;;1.20;;
16928;SDS011;8581;47.334;11.190;2023-02-15T01:06:30;1.70;;;1.17;;
16928;SDS011;8581;47.334;11.190;2023-02-15T01:09:02;1.27;;;1.10;;
16928;SDS011;8581;47.334;11.190;2023-02-15T01:11:33;1.60;;;1.30;;
16928;SDS011;8581;47.334;11.190;2023-02-15T01:14:05;1.10;;;1.00;;
16928;SDS011;8581;47.334;11.190;2023-02-15T01:16:36;4.03;;;1.07;;
16928;SDS011;8581;47.334;11.190;2023-02-15T01:19:08;1.50;;;1.10;;
16928;SDS011;8581;47.334;11.190;2023-02-15T01:21:40;1.10;;;0.97;;
16928;SDS011;8581;47.334;11.190;2023-02-15T01:24:12;1.90;;;0.90;;
16928;SDS011;8581;47.334;11.190;2023-02-15T01:26:43;1.30;;;1.00;;
16928;SDS011;8581;47.334;11.190;2023-02-15T01:29:14;0.97;;;0.90;;
16928;SDS011;8581;47.334;11.190;2023-02-15T01:31:46;1.53;;;1.10;;
16928;SDS011;8581;47.334;11.190;2023-02-15T01:34:18;1.10;;;0.90;;
16928;SDS011;8581;47.334;11.190;2023-02-15T01:36:49;1.27;;;0.87;;
16928;SDS011;8581;47.334;11.190;2023-02-15T01:39:21;0.77;;;0.70;;
16928;SDS011;8581;47.334;11.190;2023-02-15T01:41:52;1.23;;;0.93;;
16928;SDS011;8581;47.334;11.190;2023-02-15T01:47:07;1.20;;;1.10;;
16928;SDS011;8581;47.334;11.190;2023-02-15T01:49:39;1.57;;;1.00;;
16928;SDS011;8581;47.334;11.190;2023-02-15T01:52:11;1.00;;;0.90;;
16928;SDS011;8581;47.334;11.190;2023-02-15T01:54:43;1.00;;;0.90;;
16928;SDS011;8581;47.334;11.190;2023-02-15T01:57:16;0.97;;;0.90;;
16928;SDS011;8581;47.334;11.190;2023-02-15T01:59:47;1.67;;;1.00;;
16928;SDS011;8581;47.334;11.190;2023-02-15T02:02:17;1.30;;;0.93;;
16928;SDS011;8581;47.334;11.190;2023-02-15T02:04:50;0.97;;;0.90;;
16928;SDS011;8581;47.334;11.190;2023-02-15T02:07:27;1.03;;;0.90;;
16928;SDS011;8581;47.334;11.190;2023-02-15T02:09:57;1.00;;;0.83;;
16928;SDS011;8581;47.334;11.190;2023-02-15T02:12:29;1.17;;;1.07;;
16928;SDS011;8581;47.334;11.190;2023-02-15T02:15:00;0.80;;;0.80;;
16928;SDS011;8581;47.334;11.190;2023-02-15T02:20:30;1.20;;;0.80;;
16928;SDS011;8581;47.334;11.190;2023-02-15T02:23:04;1.17;;;1.00;;
16928;SDS011;8581;47.334;11.190;2023-02-15T02:26:48;2.70;;;1.00;;
16928;SDS011;8581;47.334;11.190;2023-02-15T02:29:05;0.97;;;0.70;;
16928;SDS011;8581;47.334;11.190;2023-02-15T02:34:33;1.10;;;0.90;;
16928;SDS011;8581;47.334;11.190;2023-02-15T02:37:24;1.30;;;0.70;;
16928;SDS011;8581;47.334;11.190;2023-02-15T02:40:03;1.37;;;0.87;;
16928;SDS011;8581;47.334;11.190;2023-02-15T02:42:49;0.70;;;0.70;;
16928;SDS011;8581;47.334;11.190;2023-02-15T02:45:21;0.97;;;0.80;;
16928;SDS011;8581;47.334;11.190;2023-02-15T02:47:59;1.43;;;0.90;;
16928;SDS011;8581;47.334;11.190;2023-02-15T02:50:30;0.70;;;0.67;;
16928;SDS011;8581;47.334;11.190;2023-02-15T02:53:02;0.80;;;0.80;;
16928;SDS011;8581;47.334;11.190;2023-02-15T02:55:36;2.40;;;0.70;;
16928;SDS011;8581;47.334;11.190;2023-02-15T02:58:19;1.27;;;0.73;;
16928;SDS011;8581;47.334;11.190;2023-02-15T03:00:53;1.17;;;0.90;;
16928;SDS011;8581;47.334;11.190;2023-02-15T03:03:26;1.20;;;0.90;;
16928;SDS011;8581;47.334;11.190;2023-02-15T03:05:57;1.07;;;0.90;;
16928;SDS011;8581;47.334;11.190;2023-02-15T03:08:33;0.70;;;0.70;;
16928;SDS011;8581;47.334;11.190;2023-02-15T03:11:03;0.97;;;0.73;;
16928;SDS011;8581;47.334;11.190;2023-02-15T03:13:35;1.20;;;0.90;;
16928;SDS011;8581;47.334;11.190;2023-02-15T03:16:07;1.60;;;0.90;;
16928;SDS011;8581;47.334;11.190;2023-02-15T03:18:46;0.77;;;0.70;;
16928;SDS011;8581;47.334;11.190;2023-02-15T03:21:20;2.70;;;0.87;;
16928;SDS011;8581;47.334;11.190;2023-02-15T03:23:53;0.97;;;0.90;;
16928;SDS011;8581;47.334;11.190;2023-02-15T03:26:24;1.53;;;0.80;;
16928;SDS011;8581;47.334;11.190;2023-02-15T03:28:56;1.33;;;0.80;;
16928;SDS011;8581;47.334;11.190;2023-02-15T03:31:28;2.37;;;0.97;;
16928;SDS011;8581;47.334;11.190;2023-02-15T03:34:00;0.67;;;0.63;;
16928;SDS011;8581;47.334;11.190;2023-02-15T03:36:36;1.37;;;1.07;;
16928;SDS011;8581;47.334;11.190;2023-02-15T03:39:14;1.07;;;0.90;;
16928;SDS011;8581;47.334;11.190;2023-02-15T03:41:50;1.00;;;0.90;;
16928;SDS011;8581;47.334;11.190;2023-02-15T03:44:23;0.93;;;0.73;;
16928;SDS011;8581;47.334;11.190;2023-02-15T03:46:54;0.93;;;0.70;;
16928;SDS011;8581;47.334;11.190;2023-02-15T03:49:44;1.87;;;0.93;;
16928;SDS011;8581;47.334;11.190;2023-02-15T03:52:14;2.93;;;0.87;;
16928;SDS011;8581;47.334;11.190;2023-02-15T03:54:46;0.97;;;0.80;;
16928;SDS011;8581;47.334;11.190;2023-02-15T03:57:20;0.93;;;0.80;;
16928;SDS011;8581;47.334;11.190;2023-02-15T03:59:58;1.33;;;0.87;;
16928;SDS011;8581;47.334;11.190;2023-02-15T04:02:38;1.37;;;0.70;;
16928;SDS011;8581;47.334;11.190;2023-02-15T04:05:09;1.00;;;0.80;;
16928;SDS011;8581;47.334;11.190;2023-02-15T04:07:41;0.93;;;0.70;;
16928;SDS011;8581;47.334;11.190;2023-02-15T04:10:12;1.77;;;0.70;;
16928;SDS011;8581;47.334;11.190;2023-02-15T04:12:50;1.03;;;0.77;;
16928;SDS011;8581;47.334;11.190;2023-02-15T04:15:21;1.73;;;0.90;;
16928;SDS011;8581;47.334;11.190;2023-02-15T04:17:59;1.10;;;0.70;;
16928;SDS011;8581;47.334;11.190;2023-02-15T04:20:30;0.90;;;0.70;;
16928;SDS011;8581;47.334;11.190;2023-02-15T04:23:07;2.50;;;0.90;;
16928;SDS011;8581;47.334;11.190;2023-02-15T04:25:45;1.67;;;0.63;;
16928;SDS011;8581;47.334;11.190;2023-02-15T04:28:16;1.23;;;0.77;;
16928;SDS011;8581;47.334;11.190;2023-02-15T04:30:48;1.00;;;0.80;;
16928;SDS011;8581;47.334;11.190;2023-02-15T04:33:19;0.80;;;0.70;;
16928;SDS011;8581;47.334;11.190;2023-02-15T04:35:51;0.70;;;0.70;;
16928;SDS011;8581;47.334;11.190;2023-02-15T04:38:23;2.23;;;0.80;;
16928;SDS011;8581;47.334;11.190;2023-02-15T04:40:54;2.03;;;0.93;;
16928;SDS011;8581;47.334;11.190;2023-02-15T04:43:26;1.80;;;1.00;;
16928;SDS011;8581;47.334;11.190;2023-02-15T04:45:57;1.00;;;0.90;;
16928;SDS011;8581;47.334;11.190;2023-02-15T04:48:29;1.00;;;0.90;;
16928;SDS011;8581;47.334;11.190;2023-02-15T04:51:04;1.17;;;0.80;;
16928;SDS011;8581;47.334;11.190;2023-02-15T04:53:39;1.53;;;0.93;;
16928;SDS011;8581;47.334;11.190;2023-02-15T04:56:11;1.33;;;0.90;;
16928;SDS011;8581;47.334;11.190;2023-02-15T04:58:42;1.23;;;0.90;;
16928;SDS011;8581;47.334;11.190;2023-02-15T05:01:14;2.70;;;1.00;;
16928;SDS011;8581;47.334;11.190;2023-02-15T05:03:46;2.80;;;0.93;;
16928;SDS011;8581;47.334;11.190;2023-02-15T05:06:18;3.87;;;0.80;;
16928;SDS011;8581;47.334;11.190;2023-02-15T05:08:49;2.57;;;0.77;;
16928;SDS011;8581;47.334;11.190;2023-02-15T05:11:21;1.73;;;0.70;;
16928;SDS011;8581;47.334;11.190;2023-02-15T05:13:52;2.63;;;0.70;;
16928;SDS011;8581;47.334;11.190;2023-02-15T05:16:24;3.50;;;1.00;;
16928;SDS011;8581;47.334;11.190;2023-02-15T05:18:55;1.00;;;0.80;;
16928;SDS011;8581;47.334;11.190;2023-02-15T05:21:27;1.70;;;1.10;;
16928;SDS011;8581;47.334;11.190;2023-02-15T05:23:59;1.00;;;0.90;;
16928;SDS011;8581;47.334;11.190;2023-02-15T05:26:30;1.03;;;0.87;;
16928;SDS011;8581;47.334;11.190;2023-02-15T05:29:08;1.23;;;0.90;;
16928;SDS011;8581;47.334;11.190;2023-02-15T05:31:39;1.70;;;0.80;;
16928;SDS011;8581;47.334;11.190;2023-02-15T05:34:11;1.50;;;1.27;;
16928;SDS011;8581;47.334;11.190;2023-02-15T05:36:44;2.53;;;1.20;;
16928;SDS011;8581;47.334;11.190;2023-02-15T05:39:16;1.07;;;0.93;;
16928;SDS011;8581;47.334;11.190;2023-02-15T05:41:47;1.43;;;1.10;;
16928;SDS011;8581;47.334;11.190;2023-02-15T05:44:19;0.83;;;0.70;;
16928;SDS011;8581;47.334;11.190;2023-02-15T05:46:51;1.40;;;1.17;;
16928;SDS011;8581;47.334;11.190;2023-02-15T05:49:22;1.10;;;0.90;;
16928;SDS011;8581;47.334;11.190;2023-02-15T05:51:54;2.80;;;1.00;;
16928;SDS011;8581;47.334;11.190;2023-02-15T05:54:25;2.40;;;0.90;;
16928;SDS011;8581;47.334;11.190;2023-02-15T05:56:57;1.30;;;1.00;;
16928;SDS011;8581;47.334;11.190;2023-02-15T05:59:29;1.50;;;1.00;;
16928;SDS011;8581;47.334;11.190;2023-02-15T06:02:00;1.60;;;1.23;;
16928;SDS011;8581;47.334;11.190;2023-02-15T06:04:32;1.60;;;0.80;;
16928;SDS011;8581;47.334;11.190;2023-02-15T06:07:03;1.90;;;0.93;;
16928;SDS011;8581;47.334;11.190;2023-02-15T06:09:35;1.90;;;1.30;;
16928;SDS011;8581;47.334;11.190;2023-02-15T06:12:07;2.93;;;1.60;;
16928;SDS011;8581;47.334;11.190;2023-02-15T06:14:38;2.33;;;1.60;;
16928;SDS011;8581;47.334;11.190;2023-02-15T06:17:10;3.50;;;1.40;;
16928;SDS011;8581;47.334;11.190;2023-02-15T06:19:41;2.03;;;1.40;;
16928;SDS011;8581;47.334;11.190;2023-02-15T06:22:13;5.40;;;3.10;;
16928;SDS011;8581;47.334;11.190;2023-02-15T06:24:45;7.17;;;4.53;;
16928;SDS011;8581;47.334;11.190;2023-02-15T06:27:16;6.80;;;3.53;;
16928;SDS011;8581;47.334;11.190;2023-02-15T06:29:48;5.10;;;2.73;;
16928;SDS011;8581;47.334;11.190;2023-02-15T06:32:19;4.73;;;2.90;;
16928;SDS011;8581;47.334;11.190;2023-02-15T06:34:51;7.37;;;5.33;;
16928;SDS011;8581;47.334;11.190;2023-02-15T06:37:22;6.90;;;4.07;;
16928;SDS011;8581;47.334;11.190;2023-02-15T06:39:54;6.90;;;5.10;;
16928;SDS011;8581;47.334;11.190;2023-02-15T06:42:26;6.50;;;4.57;;
16928;SDS011;8581;47.334;11.190;2023-02-15T06:44:57;6.00;;;4.27;;
16928;SDS011;8581;47.334;11.190;2023-02-15T06:47:29;5.83;;;4.03;;
16928;SDS011;8581;47.334;11.190;2023-02-15T06:50:00;5.77;;;4.07;;
16928;SDS011;8581;47.334;11.190;2023-02-15T06:52:32;4.67;;;3.90;;
16928;SDS011;8581;47.334;11.190;2023-02-15T06:55:04;6.93;;;4.23;;
16928;SDS011;8581;47.334;11.190;2023-02-15T06:57:36;4.13;;;3.50;;
16928;SDS011;8581;47.334;11.190;2023-02-15T07:00:07;4.13;;;3.70;;
16928;SDS011;8581;47.334;11.190;2023-02-15T07:02:40;4.60;;;2.83;;
16928;SDS011;8581;47.334;11.190;2023-02-15T07:05:11;2.13;;;1.53;;
16928;SDS011;8581;47.334;11.190;2023-02-15T07:07:43;26.80;;;20.03;;
16928;SDS011;8581;47.334;11.190;2023-02-15T07:10:14;31.97;;;25.43;;
16928;SDS011;8581;47.334;11.190;2023-02-15T07:12:46;20.93;;;16.27;;
16928;SDS011;8581;47.334;11.190;2023-02-15T07:15:18;12.10;;;9.03;;
16928;SDS011;8581;47.334;11.190;2023-02-15T07:17:49;6.40;;;5.23;;
16928;SDS011;8581;47.334;11.190;2023-02-15T07:20:22;5.80;;;4.77;;
16928;SDS011;8581;47.334;11.190;2023-02-15T07:22:53;5.30;;;4.40;;
16928;SDS011;8581;47.334;11.190;2023-02-15T07:25:24;5.20;;;3.50;;
16928;SDS011;8581;47.334;11.190;2023-02-15T07:27:57;4.87;;;3.50;;
16928;SDS011;8581;47.334;11.190;2023-02-15T07:30:28;4.60;;;3.47;;
16928;SDS011;8581;47.334;11.190;2023-02-15T07:33:00;3.07;;;2.50;;
16928;SDS011;8581;47.334;11.190;2023-02-15T07:35:37;5.83;;;2.10;;
16928;SDS011;8581;47.334;11.190;2023-02-15T07:38:09;2.73;;;2.20;;
16928;SDS011;8581;47.334;11.190;2023-02-15T07:40:40;2.80;;;2.40;;
16928;SDS011;8581;47.334;11.190;2023-02-15T07:43:12;3.23;;;2.50;;
16928;SDS011;8581;47.334;11.190;2023-02-15T07:45:44;9.70;;;5.03;;
16928;SDS011;8581;47.334;11.190;2023-02-15T07:48:15;7.00;;;5.17;;
16928;SDS011;8581;47.334;11.190;2023-02-15T07:50:47;5.67;;;4.00;;
16928;SDS011;8581;47.334;11.190;2023-02-15T07:53:18;3.47;;;3.17;;
16928;SDS011;8581;47.334;11.190;2023-02-15T07:55:50;4.93;;;3.73;;
16928;SDS011;8581;47.334;11.190;2023-02-15T07:58:22;2.70;;;2.50;;
16928;SDS011;8581;47.334;11.190;2023-02-15T08:00:55;5.93;;;2.00;;
16928;SDS011;8581;47.334;11.190;2023-02-15T08:03:27;2.43;;;1.93;;
16928;SDS011;8581;47.334;11.190;2023-02-15T08:05:59;4.23;;;1.70;;
16928;SDS011;8581;47.334;11.190;2023-02-15T08:08:30;5.63;;;2.30;;
16928;SDS011;8581;47.334;11.190;2023-02-15T08:11:05;3.63;;;1.93;;
16928;SDS011;8581;47.334;11.190;2023-02-15T08:13:47;6.83;;;2.90;;
16928;SDS011;8581;47.334;11.190;2023-02-15T08:16:27;4.13;;;3.50;;
16928;SDS011;8581;47.334;11.190;2023-02-15T08:19:02;4.90;;;2.90;;
16928;SDS011;8581;47.334;11.190;2023-02-15T08:21:36;6.30;;;3.83;;
16928;SDS011;8581;47.334;11.190;2023-02-15T08:24:08;5.73;;;3.60;;
16928;SDS011;8581;47.334;11.190;2023-02-15T08:26:38;4.27;;;3.07;;
16928;SDS011;8581;47.334;11.190;2023-02-15T08:29:10;2.50;;;2.13;;
16928;SDS011;8581;47.334;11.190;2023-02-15T08:31:42;4.80;;;2.50;;
16928;SDS011;8581;47.334;11.190;2023-02-15T08:34:14;3.47;;;1.47;;
16928;SDS011;8581;47.334;11.190;2023-02-15T08:36:45;2.33;;;1.17;;
16928;SDS011;8581;47.334;11.190;2023-02-15T08:39:16;1.13;;;1.03;;
16928;SDS011;8581;47.334;11.190;2023-02-15T08:41:48;1.97;;;1.37;;
16928;SDS011;8581;47.334;11.190;2023-02-15T08:44:20;3.43;;;1.20;;
16928;SDS011;8581;47.334;11.190;2023-02-15T08:46:51;6.17;;;0.93;;
16928;SDS011;8581;47.334;11.190;2023-02-15T08:49:23;1.10;;;0.80;;
16928;SDS011;8581;47.334;11.190;2023-02-15T08:51:54;2.77;;;1.17;;
16928;SDS011;8581;47.334;11.190;2023-02-15T08:54:26;2.43;;;1.00;;
16928;SDS011;8581;47.334;11.190;2023-02-15T08:56:58;2.20;;;1.90;;
16928;SDS011;8581;47.334;11.190;2023-02-15T08:59:29;3.27;;;1.50;;
16928;SDS011;8581;47.334;11.190;2023-02-15T09:02:01;2.23;;;1.50;;
16928;SDS011;8581;47.334;11.190;2023-02-15T09:04:32;4.93;;;1.50;;
16928;SDS011;8581;47.334;11.190;2023-02-15T09:07:04;3.27;;;1.40;;
16928;SDS011;8581;47.334;11.190;2023-02-15T09:09:36;3.07;;;1.30;;
16928;SDS011;8581;47.334;11.190;2023-02-15T09:12:07;3.23;;;1.20;;
16928;SDS011;8581;47.334;11.190;2023-02-15T09:14:39;2.83;;;1.40;;
16928;SDS011;8581;47.334;11.190;2023-02-15T09:17:11;2.63;;;1.10;;
16928;SDS011;8581;47.334;11.190;2023-02-15T09:19:42;12.43;;;1.23;;
16928;SDS011;8581;47.334;11.190;2023-02-15T09:22:14;3.90;;;0.90;;
16928;SDS011;8581;47.334;11.190;2023-02-15T09:24:45;1.13;;;0.70;;
16928;SDS011;8581;47.334;11.190;2023-02-15T09:27:17;5.60;;;0.87;;
16928;SDS011;8581;47.334;11.190;2023-02-15T09:29:49;2.13;;;0.60;;
16928;SDS011;8581;47.334;11.190;2023-02-15T09:32:20;1.77;;;0.80;;
16928;SDS011;8581;47.334;11.190;2023-02-15T09:34:52;3.63;;;0.70;;
16928;SDS011;8581;47.334;11.190;2023-02-15T09:37:23;2.10;;;0.80;;
16928;SDS011;8581;47.334;11.190;2023-02-15T09:39:55;1.43;;;0.87;;
16928;SDS011;8581;47.334;11.190;2023-02-15T09:42:34;4.13;;;1.17;;
16928;SDS011;8581;47.334;11.190;2023-02-15T09:45:25;4.73;;;0.90;;
16928;SDS011;8581;47.334;11.190;2023-02-15T09:48:01;1.30;;;0.80;;
16928;SDS011;8581;47.334;11.190;2023-02-15T09:56:06;3.33;;;0.87;;
16928;SDS011;8581;47.334;11.190;2023-02-15T09:59:00;2.17;;;0.77;;
16928;SDS011;8581;47.334;11.190;2023-02-15T10:07:27;0.73;;;0.67;;
16928;SDS011;8581;47.334;11.190;2023-02-15T10:12:57;2.47;;;0.70;;
16928;SDS011;8581;47.334;11.190;2023-02-15T10:15:45;1.60;;;0.80;;
16928;SDS011;8581;47.334;11.190;2023-02-15T10:18:32;4.60;;;0.90;;
16928;SDS011;8581;47.334;11.190;2023-02-15T10:21:38;2.20;;;0.80;;
16928;SDS011;8581;47.334;11.190;2023-02-15T10:24:06;2.10;;;0.60;;
16928;SDS011;8581;47.334;11.190;2023-02-15T10:26:49;1.17;;;0.50;;
16928;SDS011;8581;47.334;11.190;2023-02-15T10:29:24;1.27;;;0.60;;
16928;SDS011;8581;47.334;11.190;2023-02-15T10:31:57;3.33;;;0.67;;
16928;SDS011;8581;47.334;11.190;2023-02-15T10:34:35;1.30;;;0.70;;
16928;SDS011;8581;47.334;11.190;2023-02-15T10:45:23;1.20;;;0.70;;
16928;SDS011;8581;47.334;11.190;2023-02-15T10:48:05;0.87;;;0.80;;
16928;SDS011;8581;47.334;11.190;2023-02-15T10:56:17;0.97;;;0.70;;
16928;SDS011;8581;47.334;11.190;2023-02-15T10:58:52;1.00;;;0.70;;
16928;SDS011;8581;47.334;11.190;2023-02-15T11:01:25;4.08;;;0.88;;
16928;SDS011;8581;47.334;11.190;2023-02-15T11:04:18;2.35;;;0.80;;
16928;SDS011;8581;47.334;11.190;2023-02-15T11:06:50;5.05;;;2.65;;
16928;SDS011;8581;47.334;11.190;2023-02-15T11:09:22;2.95;;;1.75;;
16928;SDS011;8581;47.334;11.190;2023-02-15T11:11:53;4.62;;;2.40;;
16928;SDS011;8581;47.334;11.190;2023-02-15T11:17:33;15.68;;;2.60;;
16928;SDS011;8581;47.334;11.190;2023-02-15T11:20:42;8.58;;;1.90;;
16928;SDS011;8581;47.334;11.190;2023-02-15T11:22:55;1.62;;;1.40;;
16928;SDS011;8581;47.334;11.190;2023-02-15T11:25:30;0.72;;;0.70;;
16928;SDS011;8581;47.334;11.190;2023-02-15T11:28:03;6.12;;;2.55;;
16928;SDS011;8581;47.334;11.190;2023-02-15T11:30:40;6.22;;;4.03;;
16928;SDS011;8581;47.334;11.190;2023-02-15T11:33:15;8.25;;;3.20;;
16928;SDS011;8581;47.334;11.190;2023-02-15T11:35:51;4.55;;;1.82;;
16928;SDS011;8581;47.334;11.190;2023-02-15T11:38:23;8.98;;;2.00;;
16928;SDS011;8581;47.334;11.190;2023-02-15T11:40:57;8.28;;;2.30;;
16928;SDS011;8581;47.334;11.190;2023-02-15T11:43:31;2.98;;;1.37;;
16928;SDS011;8581;47.334;11.190;2023-02-15T11:46:12;1.25;;;1.10;;
16928;SDS011;8581;47.334;11.190;2023-02-15T11:48:43;2.05;;;1.02;;
16928;SDS011;8581;47.334;11.190;2023-02-15T11:51:17;10.85;;;1.60;;
16928;SDS011;8581;47.334;11.190;2023-02-15T11:53:46;3.75;;;1.07;;
16928;SDS011;8581;47.334;11.190;2023-02-15T11:56:20;5.03;;;1.30;;
16928;SDS011;8581;47.334;11.190;2023-02-15T11:58:54;2.02;;;1.10;;
16928;SDS011;8581;47.334;11.190;2023-02-15T12:01:30;0.98;;;0.93;;
16928;SDS011;8581;47.334;11.190;2023-02-15T12:04:10;2.98;;;1.20;;
16928;SDS011;8581;47.334;11.190;2023-02-15T12:06:49;1.35;;;1.10;;
16928;SDS011;8581;47.334;11.190;2023-02-15T12:14:47;1.42;;;1.20;;
16928;SDS011;8581;47.334;11.190;2023-02-15T12:17:18;3.02;;;1.10;;
16928;SDS011;8581;47.334;11.190;2023-02-15T12:19:49;1.77;;;1.00;;
16928;SDS011;8581;47.334;11.190;2023-02-15T12:22:24;1.00;;;0.90;;
16928;SDS011;8581;47.334;11.190;2023-02-15T12:24:55;0.88;;;0.88;;
16928;SDS011;8581;47.334;11.190;2023-02-15T12:27:27;2.35;;;1.10;;
16928;SDS011;8581;47.334;11.190;2023-02-15T12:30:00;8.93;;;1.70;;
16928;SDS011;8581;47.334;11.190;2023-02-15T12:32:33;3.15;;;1.20;;
16928;SDS011;8581;47.334;11.190;2023-02-15T12:35:08;2.65;;;1.17;;
16928;SDS011;8581;47.334;11.190;2023-02-15T12:37:40;3.60;;;1.42;;
16928;SDS011;8581;47.334;11.190;2023-02-15T12:42:49;7.08;;;1.42;;
16928;SDS011;8581;47.334;11.190;2023-02-15T12:45:22;4.85;;;1.40;;
16928;SDS011;8581;47.334;11.190;2023-02-15T12:50:38;1.80;;;1.10;;
16928;SDS011;8581;47.334;11.190;2023-02-15T12:53:20;3.33;;;1.27;;
16928;SDS011;8581;47.334;11.190;2023-02-15T12:55:51;4.58;;;1.30;;
16928;SDS011;8581;47.334;11.190;2023-02-15T12:58:24;1.27;;;1.10;;
16928;SDS011;8581;47.334;11.190;2023-02-15T13:01:02;3.98;;;1.10;;
16928;SDS011;8581;47.334;11.190;2023-02-15T13:03:57;1.87;;;1.17;;
16928;SDS011;8581;47.334;11.190;2023-02-15T13:06:31;1.35;;;1.15;;
16928;SDS011;8581;47.334;11.190;2023-02-15T13:09:12;4.78;;;1.42;;
16928;SDS011;8581;47.334;11.190;2023-02-15T13:11:53;1.98;;;1.20;;
16928;SDS011;8581;47.334;11.190;2023-02-15T13:14:27;2.00;;;1.20;;
16928;SDS011;8581;47.334;11.190;2023-02-15T13:16:57;7.37;;;1.65;;
16928;SDS011;8581;47.334;11.190;2023-02-15T13:19:31;6.65;;;1.42;;
16928;SDS011;8581;47.334;11.190;2023-02-15T13:22:05;2.37;;;1.12;;
16928;SDS011;8581;47.334;11.190;2023-02-15T13:24:36;2.15;;;1.00;;
16928;SDS011;8581;47.334;11.190;2023-02-15T13:27:07;7.70;;;1.60;;
16928;SDS011;8581;47.334;11.190;2023-02-15T13:29:39;4.58;;;1.37;;
16928;SDS011;8581;47.334;11.190;2023-02-15T13:32:44;3.98;;;1.15;;
16928;SDS011;8581;47.334;11.190;2023-02-15T13:35:05;7.22;;;1.30;;
16928;SDS011;8581;47.334;11.190;2023-02-15T13:37:45;1.65;;;1.37;;
16928;SDS011;8581;47.334;11.190;2023-02-15T13:40:19;2.02;;;1.00;;
16928;SDS011;8581;47.334;11.190;2023-02-15T13:42:55;1.20;;;1.10;;
16928;SDS011;8581;47.334;11.190;2023-02-15T13:48:09;4.90;;;1.72;;
16928;SDS011;8581;47.334;11.190;2023-02-15T13:56:31;4.15;;;1.40;;
16928;SDS011;8581;47.334;11.190;2023-02-15T13:59:06;2.45;;;1.15;;
16928;SDS011;8581;47.334;11.190;2023-02-15T14:01:44;6.97;;;1.50;;
16928;SDS011;8581;47.334;11.190;2023-02-15T14:04:33;3.02;;;1.20;;
16928;SDS011;8581;47.334;11.190;2023-02-15T14:07:22;9.50;;;1.80;;
16928;SDS011;8581;47.334;11.190;2023-02-15T14:10:00;3.70;;;1.25;;
16928;SDS011;8581;47.334;11.190;2023-02-15T14:15:35;4.72;;;1.30;;
16928;SDS011;8581;47.334;11.190;2023-02-15T14:21:09;8.30;;;2.42;;
16928;SDS011;8581;47.334;11.190;2023-02-15T14:23:48;2.92;;;1.45;;
16928;SDS011;8581;47.334;11.190;2023-02-15T14:29:19;1.50;;;1.20;;
16928;SDS011;8581;47.334;11.190;2023-02-15T14:31:48;5.58;;;1.47;;
16928;SDS011;8581;47.334;11.190;2023-02-15T14:34:21;4.05;;;1.30;;
16928;SDS011;8581;47.334;11.190;2023-02-15T14:36:54;4.87;;;1.20;;
16928;SDS011;8581;47.334;11.190;2023-02-15T14:39:30;4.12;;;1.52;;
16928;SDS011;8581;47.334;11.190;2023-02-15T14:42:05;1.60;;;1.37;;
16928;SDS011;8581;47.334;11.190;2023-02-15T14:44:37;3.75;;;1.32;;
16928;SDS011;8581;47.334;11.190;2023-02-15T14:47:10;1.65;;;1.40;;
16928;SDS011;8581;47.334;11.190;2023-02-15T14:49:41;2.30;;;1.70;;
16928;SDS011;8581;47.334;11.190;2023-02-15T14:52:13;5.17;;;1.67;;
16928;SDS011;8581;47.334;11.190;2023-02-15T14:57:31;1.87;;;1.17;;
16928;SDS011;8581;47.334;11.190;2023-02-15T15:00:03;1.98;;;0.80;;
16928;SDS011;8581;47.334;11.190;2023-02-15T15:02:40;3.62;;;0.85;;
16928;SDS011;8581;47.334;11.190;2023-02-15T15:07:52;2.22;;;1.00;;
16928;SDS011;8581;47.334;11.190;2023-02-15T15:10:39;1.80;;;0.98;;
16928;SDS011;8581;47.334;11.190;2023-02-15T15:15:52;0.95;;;0.85;;
16928;SDS011;8581;47.334;11.190;2023-02-15T15:21:04;1.15;;;0.98;;
16928;SDS011;8581;47.334;11.190;2023-02-15T15:23:45;1.70;;;1.02;;
16928;SDS011;8581;47.334;11.190;2023-02-15T15:28:55;2.33;;;1.07;;
16928;SDS011;8581;47.334;11.190;2023-02-15T15:31:30;4.58;;;1.70;;
16928;SDS011;8581;47.334;11.190;2023-02-15T15:34:07;1.65;;;1.00;;
16928;SDS011;8581;47.334;11.190;2023-02-15T15:37:01;4.87;;;1.07;;
16928;SDS011;8581;47.334;11.190;2023-02-15T15:39:38;4.72;;;1.30;;
16928;SDS011;8581;47.334;11.190;2023-02-15T15:42:27;1.52;;;1.20;;
16928;SDS011;8581;47.334;11.190;2023-02-15T15:44:58;2.80;;;1.30;;
16928;SDS011;8581;47.334;11.190;2023-02-15T15:47:50;1.92;;;1.10;;
16928;SDS011;8581;47.334;11.190;2023-02-15T15:50:18;7.75;;;1.35;;
16928;SDS011;8581;47.334;11.190;2023-02-15T15:52:52;6.05;;;1.20;;
16928;SDS011;8581;47.334;11.190;2023-02-15T15:55:24;3.08;;;1.20;;
16928;SDS011;8581;47.334;11.190;2023-02-15T15:57:56;3.12;;;1.10;;
16928;SDS011;8581;47.334;11.190;2023-02-15T16:00:43;6.15;;;1.00;;
16928;SDS011;8581;47.334;11.190;2023-02-15T16:03:20;4.55;;;1.42;;
16928;SDS011;8581;47.334;11.190;2023-02-15T16:05:51;5.65;;;2.08;;
16928;SDS011;8581;47.334;11.190;2023-02-15T16:08:33;1.15;;;1.07;;
16928;SDS011;8581;47.334;11.190;2023-02-15T16:11:14;5.33;;;1.87;;
16928;SDS011;8581;47.334;11.190;2023-02-15T16:13:45;17.25;;;3.30;;
16928;SDS011;8581;47.334;11.190;2023-02-15T16:16:22;1.30;;;1.20;;
16928;SDS011;8581;47.334;11.190;2023-02-15T16:18:55;6.27;;;1.87;;
16928;SDS011;8581;47.334;11.190;2023-02-15T16:21:27;42.17;;;6.93;;
16928;SDS011;8581;47.334;11.190;2023-02-15T16:24:20;28.43;;;5.30;;
16928;SDS011;8581;47.334;11.190;2023-02-15T16:29:31;26.43;;;4.43;;
16928;SDS011;8581;47.334;11.190;2023-02-15T16:32:04;15.47;;;3.50;;
16928;SDS011;8581;47.334;11.190;2023-02-15T16:34:34;21.20;;;3.53;;
16928;SDS011;8581;47.334;11.190;2023-02-15T16:37:13;46.60;;;6.40;;
16928;SDS011;8581;47.334;11.190;2023-02-15T16:39:45;4.23;;;1.83;;
16928;SDS011;8581;47.334;11.190;2023-02-15T16:42:16;3.20;;;2.17;;
16928;SDS011;8581;47.334;11.190;2023-02-15T16:44:50;5.77;;;1.97;;
16928;SDS011;8581;47.334;11.190;2023-02-15T16:47:22;3.70;;;2.00;;
16928;SDS011;8581;47.334;11.190;2023-02-15T16:49:55;2.77;;;1.70;;
16928;SDS011;8581;47.334;11.190;2023-02-15T16:52:26;3.10;;;1.40;;